sensor_id;sensor_type;location;lat;lon;timestamp;pressure;altitude;pressure_sealevel;temperature;humidity
69035;BME280;56091;55.756;37.412;2023-03-24T00:02:00;97739.97;;;7.98;68.61
69035;BME280;56091;55.756;37.412;2023-03-24T00:07:01;97741.66;;;7.84;69.10
69035;BME280;56091;55.756;37.412;2023-03-24T00:12:03;97728.81;;;7.70;69.87
69035;BME280;56091;55.756;37.412;2023-03-24T00:17:06;97715.13;;;7.67;70.09
69035;BME280;56091;55.756;37.412;2023-03-24T00:22:08;97715.94;;;7.67;70.16
69035;BME280;56091;55.756;37.412;2023-03-24T00:27:17;97694.22;;;7.58;70.45
69035;BME280;56091;55.756;37.412;2023-03-24T00:32:18;97700.63;;;7.62;70.31
69035;BME280;56091;55.756;37.412;2023-03-24T00:37:19;97677.81;;;7.65;70.34
69035;BME280;56091;55.756;37.412;2023-03-24T00:42:20;97671.09;;;7.68;70.26
69035;BME280;56091;55.756;37.412;2023-03-24T00:47:21;97668.16;;;7.69;70.42
69035;BME280;56091;55.756;37.412;2023-03-24T00:52:26;97637.06;;;7.53;70.21
69035;BME280;56091;55.756;37.412;2023-03-24T00:57:37;97685.81;;;7.75;70.15
69035;BME280;56091;55.756;37.412;2023-03-24T01:02:40;97676.44;;;7.78;70.09
69035;BME280;56091;55.756;37.412;2023-03-24T01:07:41;97686.59;;;7.81;69.96
69035;BME280;56091;55.756;37.412;2023-03-24T01:12:42;97683.91;;;7.81;69.85
69035;BME280;56091;55.756;37.412;2023-03-24T01:17:43;97689.25;;;7.91;69.63
69035;BME280;56091;55.756;37.412;2023-03-24T01:22:46;97680.63;;;7.94;70.07
69035;BME280;56091;55.756;37.412;2023-03-24T01:27:48;97649.06;;;7.76;70.45
69035;BME280;56091;55.756;37.412;2023-03-24T01:32:52;97634.31;;;7.73;70.86
69035;BME280;56091;55.756;37.412;2023-03-24T01:37:53;97655.19;;;7.87;71.09
69035;BME280;56091;55.756;37.412;2023-03-24T01:42:54;97640.13;;;7.91;70.81
69035;BME280;56091;55.756;37.412;2023-03-24T01:47:55;97637.75;;;7.84;70.87
69035;BME280;56091;55.756;37.412;2023-03-24T01:52:56;97646.31;;;7.86;70.87
69035;BME280;56091;55.756;37.412;2023-03-24T01:57:59;97636.13;;;7.83;70.88
69035;BME280;56091;55.756;37.412;2023-03-24T02:03:12;97619.56;;;7.76;70.84
69035;BME280;56091;55.756;37.412;2023-03-24T02:08:35;97606.09;;;7.81;70.41
69035;BME280;56091;55.756;37.412;2023-03-24T02:13:37;97627.19;;;7.98;70.05
69035;BME280;56091;55.756;37.412;2023-03-24T02:18:51;97615.91;;;8.01;69.89
69035;BME280;56091;55.756;37.412;2023-03-24T02:50:47;97590.97;;;8.35;68.79
69035;BME280;56091;55.756;37.412;2023-03-24T02:56:00;97592.22;;;8.48;68.16
69035;BME280;56091;55.756;37.412;2023-03-24T03:01:14;97582.56;;;8.47;68.08
69035;BME280;56091;55.756;37.412;2023-03-24T03:06:39;97576.72;;;8.34;68.32
69035;BME280;56091;55.756;37.412;2023-03-24T03:11:46;97561.09;;;8.36;68.46
69035;BME280;56091;55.756;37.412;2023-03-24T03:17:21;97559.47;;;8.40;68.32
69035;BME280;56091;55.756;37.412;2023-03-24T03:22:29;97536.38;;;8.45;68.28
69035;BME280;56091;55.756;37.412;2023-03-24T03:27:34;97537.16;;;8.40;68.23
69035;BME280;56091;55.756;37.412;2023-03-24T03:32:44;97546.13;;;8.30;69.39
69035;BME280;56091;55.756;37.412;2023-03-24T03:43:15;97541.25;;;7.58;76.22
69035;BME280;56091;55.756;37.412;2023-03-24T03:48:17;97550.41;;;7.57;78.82
69035;BME280;56091;55.756;37.412;2023-03-24T03:53:22;97549.38;;;7.48;80.39
69035;BME280;56091;55.756;37.412;2023-03-24T03:58:24;97535.53;;;7.31;82.23
69035;BME280;56091;55.756;37.412;2023-03-24T04:03:51;97553.00;;;7.23;83.73
69035;BME280;56091;55.756;37.412;2023-03-24T04:09:22;97553.28;;;7.16;85.05
69035;BME280;56091;55.756;37.412;2023-03-24T04:20:13;97535.41;;;6.96;87.79
69035;BME280;56091;55.756;37.412;2023-03-24T04:31:04;97525.53;;;6.71;95.77
69035;BME280;56091;55.756;37.412;2023-03-24T04:36:39;97522.63;;;6.52;97.51
69035;BME280;56091;55.756;37.412;2023-03-24T04:42:07;97507.69;;;6.36;100.00
69035;BME280;56091;55.756;37.412;2023-03-24T04:47:10;97517.31;;;6.37;100.00
69035;BME280;56091;55.756;37.412;2023-03-24T04:52:18;97523.44;;;6.42;100.00
69035;BME280;56091;55.756;37.412;2023-03-24T04:57:19;97506.88;;;6.20;100.00
69035;BME280;56091;55.756;37.412;2023-03-24T05:02:26;97511.97;;;6.27;100.00
69035;BME280;56091;55.756;37.412;2023-03-24T05:07:32;97531.50;;;6.27;100.00
69035;BME280;56091;55.756;37.412;2023-03-24T05:12:36;97534.97;;;6.33;100.00
69035;BME280;56091;55.756;37.412;2023-03-24T05:17:45;97536.31;;;6.20;100.00
69035;BME280;56091;55.756;37.412;2023-03-24T05:22:47;97530.44;;;6.23;100.00
69035;BME280;56091;55.756;37.412;2023-03-24T05:27:49;97523.75;;;6.36;100.00
69035;BME280;56091;55.756;37.412;2023-03-24T05:32:57;97521.84;;;6.31;100.00
69035;BME280;56091;55.756;37.412;2023-03-24T05:37:58;97527.75;;;6.38;100.00
69035;BME280;56091;55.756;37.412;2023-03-24T05:42:59;97525.34;;;6.37;100.00
69035;BME280;56091;55.756;37.412;2023-03-24T05:48:04;97506.31;;;6.33;100.00
69035;BME280;56091;55.756;37.412;2023-03-24T05:53:26;97528.81;;;6.42;100.00
69035;BME280;56091;55.756;37.412;2023-03-24T05:58:43;97508.19;;;6.43;100.00
69035;BME280;56091;55.756;37.412;2023-03-24T06:03:44;97519.19;;;6.31;100.00
69035;BME280;56091;55.756;37.412;2023-03-24T06:08:48;97521.84;;;6.31;100.00
69035;BME280;56091;55.756;37.412;2023-03-24T06:13:50;97515.97;;;6.34;100.00
69035;BME280;56091;55.756;37.412;2023-03-24T06:18:51;97515.97;;;6.34;100.00
69035;BME280;56091;55.756;37.412;2023-03-24T06:24:12;97518.13;;;6.32;100.00
69035;BME280;56091;55.756;37.412;2023-03-24T06:29:16;97515.41;;;6.37;100.00
69035;BME280;56091;55.756;37.412;2023-03-24T06:34:17;97510.09;;;6.32;100.00
69035;BME280;56091;55.756;37.412;2023-03-24T06:39:29;97508.75;;;6.40;100.00
69035;BME280;56091;55.756;37.412;2023-03-24T06:44:33;97509.25;;;6.47;100.00
69035;BME280;56091;55.756;37.412;2023-03-24T06:49:34;97515.97;;;6.34;100.00
69035;BME280;56091;55.756;37.412;2023-03-24T06:54:36;97481.19;;;6.19;100.00
69035;BME280;56091;55.756;37.412;2023-03-24T06:59:37;97505.00;;;6.31;100.00
69035;BME280;56091;55.756;37.412;2023-03-24T07:04:40;97434.59;;;5.89;100.00
69035;BME280;56091;55.756;37.412;2023-03-24T07:09:52;97520.25;;;6.40;100.00
69035;BME280;56091;55.756;37.412;2023-03-24T07:14:53;97523.19;;;6.44;100.00
69035;BME280;56091;55.756;37.412;2023-03-24T07:19:55;97531.22;;;6.49;100.00
69035;BME280;56091;55.756;37.412;2023-03-24T07:25:14;97519.44;;;6.35;100.00
69035;BME280;56091;55.756;37.412;2023-03-24T07:30:32;97540.59;;;6.36;100.00
69035;BME280;56091;55.756;37.412;2023-03-24T07:35:35;97540.59;;;6.36;100.00
69035;BME280;56091;55.756;37.412;2023-03-24T07:40:37;97529.09;;;6.36;100.00
69035;BME280;56091;55.756;37.412;2023-03-24T07:45:37;97534.97;;;6.43;100.00
69035;BME280;56091;55.756;37.412;2023-03-24T07:50:39;97540.31;;;6.48;100.00
69035;BME280;56091;55.756;37.412;2023-03-24T07:55:59;97544.06;;;6.52;100.00
69035;BME280;56091;55.756;37.412;2023-03-24T08:01:01;97530.44;;;6.38;100.00
69035;BME280;56091;55.756;37.412;2023-03-24T08:06:12;97544.88;;;6.53;100.00
69035;BME280;56091;55.756;37.412;2023-03-24T08:11:17;97530.97;;;6.45;100.00
69035;BME280;56091;55.756;37.412;2023-03-24T08:16:17;97565.50;;;6.47;100.00
69035;BME280;56091;55.756;37.412;2023-03-24T08:21:18;97555.31;;;6.59;100.00
69035;BME280;56091;55.756;37.412;2023-03-24T08:26:19;97558.78;;;6.70;100.00
69035;BME280;56091;55.756;37.412;2023-03-24T08:31:20;97562.50;;;6.74;100.00
69035;BME280;56091;55.756;37.412;2023-03-24T08:36:21;97566.25;;;6.83;100.00
69035;BME280;56091;55.756;37.412;2023-03-24T08:41:25;97566.25;;;6.78;100.00
69035;BME280;56091;55.756;37.412;2023-03-24T08:46:34;97560.38;;;6.76;100.00
69035;BME280;56091;55.756;37.412;2023-03-24T08:51:35;97578.84;;;6.83;100.00
69035;BME280;56091;55.756;37.412;2023-03-24T08:56:36;97572.41;;;6.79;100.00
69035;BME280;56091;55.756;37.412;2023-03-24T09:01:37;97568.41;;;6.71;100.00
69035;BME280;56091;55.756;37.412;2023-03-24T09:06:38;97586.59;;;6.84;100.00
69035;BME280;56091;55.756;37.412;2023-03-24T09:11:39;97590.91;;;6.80;100.00
69035;BME280;56091;55.756;37.412;2023-03-24T09:16:40;97583.94;;;6.79;100.00
69035;BME280;56091;55.756;37.412;2023-03-24T09:21:44;97578.03;;;6.93;100.00
69035;BME280;56091;55.756;37.412;2023-03-24T09:26:45;97583.38;;;6.88;100.00
69035;BME280;56091;55.756;37.412;2023-03-24T09:31:48;97591.97;;;6.90;100.00
69035;BME280;56091;55.756;37.412;2023-03-24T09:36:50;97616.88;;;6.95;100.00
69035;BME280;56091;55.756;37.412;2023-03-24T09:41:50;97601.63;;;6.86;100.00
69035;BME280;56091;55.756;37.412;2023-03-24T09:46:59;97605.88;;;6.87;100.00
69035;BME280;56091;55.756;37.412;2023-03-24T09:52:04;97612.88;;;6.82;100.00
69035;BME280;56091;55.756;37.412;2023-03-24T09:57:21;97624.94;;;6.80;100.00
69035;BME280;56091;55.756;37.412;2023-03-24T10:02:27;97624.16;;;6.69;100.00
69035;BME280;56091;55.756;37.412;2023-03-24T10:07:39;97625.47;;;6.77;100.00
69035;BME280;56091;55.756;37.412;2023-03-24T10:12:47;97626.00;;;6.84;100.00
69035;BME280;56091;55.756;37.412;2023-03-24T10:17:56;97624.91;;;7.00;100.00
69035;BME280;56091;55.756;37.412;2023-03-24T10:28:23;97629.16;;;7.17;100.00
69035;BME280;56091;55.756;37.412;2023-03-24T10:33:29;97615.41;;;7.34;100.00
69035;BME280;56091;55.756;37.412;2023-03-24T10:38:30;97635.69;;;7.66;100.00
69035;BME280;56091;55.756;37.412;2023-03-24T10:43:31;97632.53;;;7.48;99.08
69035;BME280;56091;55.756;37.412;2023-03-24T10:53:39;97660.38;;;7.62;99.27
69035;BME280;56091;55.756;37.412;2023-03-24T10:58:45;97637.03;;;7.63;98.23
69035;BME280;56091;55.756;37.412;2023-03-24T11:03:47;97654.28;;;8.01;98.06
69035;BME280;56091;55.756;37.412;2023-03-24T11:14:21;97639.16;;;8.55;93.53
69035;BME280;56091;55.756;37.412;2023-03-24T11:19:24;97651.63;;;8.81;95.24
69035;BME280;56091;55.756;37.412;2023-03-24T11:24:26;97648.50;;;8.97;92.68
69035;BME280;56091;55.756;37.412;2023-03-24T11:29:31;97658.72;;;8.66;92.20
69035;BME280;56091;55.756;37.412;2023-03-24T11:34:43;97665.13;;;8.70;90.53
69035;BME280;56091;55.756;37.412;2023-03-24T11:50:29;97679.41;;;9.00;89.48
69035;BME280;56091;55.756;37.412;2023-03-24T11:56:02;97687.03;;;8.88;90.74
69035;BME280;56091;55.756;37.412;2023-03-24T12:01:24;97711.97;;;8.93;89.34
69035;BME280;56091;55.756;37.412;2023-03-24T12:17:14;97711.34;;;8.72;90.26
69035;BME280;56091;55.756;37.412;2023-03-24T12:22:21;97720.16;;;8.83;90.88
69035;BME280;56091;55.756;37.412;2023-03-24T12:27:58;97724.25;;;8.70;89.22
69035;BME280;56091;55.756;37.412;2023-03-24T12:54:35;97724.72;;;8.83;85.26
69035;BME280;56091;55.756;37.412;2023-03-24T12:59:40;97715.78;;;9.22;84.63
69035;BME280;56091;55.756;37.412;2023-03-24T13:04:46;97716.06;;;8.86;85.04
69035;BME280;56091;55.756;37.412;2023-03-24T13:10:15;97729.00;;;8.84;84.65
69035;BME280;56091;55.756;37.412;2023-03-24T13:15:22;97727.84;;;8.95;84.61
69035;BME280;56091;55.756;37.412;2023-03-24T13:20:46;97717.94;;;8.90;84.50
69035;BME280;56091;55.756;37.412;2023-03-24T13:42:32;97744.38;;;9.12;81.50
69035;BME280;56091;55.756;37.412;2023-03-24T13:48:01;97738.88;;;9.28;80.54
69035;BME280;56091;55.756;37.412;2023-03-24T13:53:06;97760.22;;;9.14;77.91
69035;BME280;56091;55.756;37.412;2023-03-24T13:58:19;97744.75;;;9.01;78.84
69035;BME280;56091;55.756;37.412;2023-03-24T14:03:40;97737.25;;;8.97;77.49
69035;BME280;56091;55.756;37.412;2023-03-24T14:08:55;97767.69;;;8.88;73.72
69035;BME280;56091;55.756;37.412;2023-03-24T14:24:24;97796.28;;;8.78;73.89
69035;BME280;56091;55.756;37.412;2023-03-24T14:29:37;97772.13;;;8.68;73.82
69035;BME280;56091;55.756;37.412;2023-03-24T14:34:57;97762.03;;;8.50;74.23
69035;BME280;56091;55.756;37.412;2023-03-24T14:39:59;97790.78;;;8.54;73.52
69035;BME280;56091;55.756;37.412;2023-03-24T14:45:05;97787.28;;;8.54;74.98
69035;BME280;56091;55.756;37.412;2023-03-24T14:50:21;97785.66;;;8.53;73.83
69035;BME280;56091;55.756;37.412;2023-03-24T14:55:24;97784.09;;;8.47;74.59
69035;BME280;56091;55.756;37.412;2023-03-24T15:00:35;97801.56;;;8.44;73.90
69035;BME280;56091;55.756;37.412;2023-03-24T15:05:40;97811.53;;;8.33;73.68
69035;BME280;56091;55.756;37.412;2023-03-24T15:11:07;97824.97;;;8.28;73.39
69035;BME280;56091;55.756;37.412;2023-03-24T15:26:30;97834.72;;;8.14;72.48
69035;BME280;56091;55.756;37.412;2023-03-24T15:31:33;97852.47;;;8.05;71.93
69035;BME280;56091;55.756;37.412;2023-03-24T15:36:38;97840.41;;;7.97;72.19
69035;BME280;56091;55.756;37.412;2023-03-24T15:41:40;97851.41;;;7.90;71.95
69035;BME280;56091;55.756;37.412;2023-03-24T15:46:42;97842.03;;;7.77;72.33
69035;BME280;56091;55.756;37.412;2023-03-24T15:51:50;97854.63;;;7.87;72.70
69035;BME280;56091;55.756;37.412;2023-03-24T16:02:06;97867.81;;;7.84;73.03
69035;BME280;56091;55.756;37.412;2023-03-24T16:07:21;97880.44;;;7.78;72.80
69035;BME280;56091;55.756;37.412;2023-03-24T16:12:30;97884.72;;;7.74;73.42
69035;BME280;56091;55.756;37.412;2023-03-24T16:17:31;97901.66;;;7.74;73.60
69035;BME280;56091;55.756;37.412;2023-03-24T16:22:32;97892.78;;;7.74;73.34
69035;BME280;56091;55.756;37.412;2023-03-24T16:27:33;97893.59;;;7.74;73.35
69035;BME280;56091;55.756;37.412;2023-03-24T16:32:34;97907.28;;;7.57;73.33
69035;BME280;56091;55.756;37.412;2023-03-24T16:37:35;97913.72;;;7.61;73.28
69035;BME280;56091;55.756;37.412;2023-03-24T16:42:36;97931.97;;;7.59;72.30
69035;BME280;56091;55.756;37.412;2023-03-24T16:47:37;97904.06;;;7.50;69.89
69035;BME280;56091;55.756;37.412;2023-03-24T16:52:38;97929.84;;;7.67;67.19
69035;BME280;56091;55.756;37.412;2023-03-24T16:57:38;97923.38;;;7.68;67.83
69035;BME280;56091;55.756;37.412;2023-03-24T17:02:39;97921.78;;;7.46;68.52
69035;BME280;56091;55.756;37.412;2023-03-24T17:07:45;97922.03;;;7.34;69.25
69035;BME280;56091;55.756;37.412;2023-03-24T17:12:46;97931.13;;;7.23;70.27
69035;BME280;56091;55.756;37.412;2023-03-24T17:17:47;97928.13;;;7.09;70.99
69035;BME280;56091;55.756;37.412;2023-03-24T17:22:50;97924.09;;;6.96;71.68
69035;BME280;56091;55.756;37.412;2023-03-24T17:27:51;97924.06;;;6.86;72.03
69035;BME280;56091;55.756;37.412;2023-03-24T17:32:52;97937.72;;;6.84;72.88
69035;BME280;56091;55.756;37.412;2023-03-24T17:37:56;97932.88;;;6.76;73.42
69035;BME280;56091;55.756;37.412;2023-03-24T17:42:57;97946.53;;;6.70;73.87
69035;BME280;56091;55.756;37.412;2023-03-24T17:47:58;97961.22;;;6.62;74.50
69035;BME280;56091;55.756;37.412;2023-03-24T17:52:59;97899.63;;;6.09;75.75
69035;BME280;56091;55.756;37.412;2023-03-24T17:58:00;97967.00;;;6.38;76.98
69035;BME280;56091;55.756;37.412;2023-03-24T18:03:00;97964.28;;;6.33;77.79
69035;BME280;56091;55.756;37.412;2023-03-24T18:08:01;97968.50;;;6.19;78.66
69035;BME280;56091;55.756;37.412;2023-03-24T18:13:04;97973.28;;;6.17;79.12
69035;BME280;56091;55.756;37.412;2023-03-24T18:18:07;97957.63;;;5.98;79.32
69035;BME280;56091;55.756;37.412;2023-03-24T18:23:08;97970.50;;;6.01;79.65
69035;BME280;56091;55.756;37.412;2023-03-24T18:28:08;97979.66;;;6.05;79.82
69035;BME280;56091;55.756;37.412;2023-03-24T18:33:09;97988.22;;;6.08;79.68
69035;BME280;56091;55.756;37.412;2023-03-24T18:38:15;97983.91;;;6.06;79.67
69035;BME280;56091;55.756;37.412;2023-03-24T18:43:22;97965.16;;;6.01;79.87
69035;BME280;56091;55.756;37.412;2023-03-24T18:48:23;97978.81;;;6.05;79.94
69035;BME280;56091;55.756;37.412;2023-03-24T18:53:24;97969.13;;;5.99;79.95
69035;BME280;56091;55.756;37.412;2023-03-24T18:58:25;97965.66;;;5.98;79.80
69035;BME280;56091;55.756;37.412;2023-03-24T19:03:26;97970.50;;;6.01;79.85
69035;BME280;56091;55.756;37.412;2023-03-24T19:08:26;97945.16;;;5.82;79.89
69035;BME280;56091;55.756;37.412;2023-03-24T19:13:27;97963.16;;;5.92;80.03
69035;BME280;56091;55.756;37.412;2023-03-24T19:18:28;97962.91;;;5.93;80.72
69035;BME280;56091;55.756;37.412;2023-03-24T19:23:30;97959.13;;;5.89;81.08
69035;BME280;56091;55.756;37.412;2023-03-24T19:28:33;97957.31;;;5.95;81.72
69035;BME280;56091;55.756;37.412;2023-03-24T19:33:35;97955.91;;;5.87;82.23
69035;BME280;56091;55.756;37.412;2023-03-24T19:38:37;97959.91;;;5.84;82.96
69035;BME280;56091;55.756;37.412;2023-03-24T19:43:38;97960.41;;;5.81;83.45
69035;BME280;56091;55.756;37.412;2023-03-24T19:48:39;97958.00;;;5.80;83.97
69035;BME280;56091;55.756;37.412;2023-03-24T19:53:40;97955.53;;;5.73;84.62
69035;BME280;56091;55.756;37.412;2023-03-24T19:58:40;97960.06;;;5.67;85.02
69035;BME280;56091;55.756;37.412;2023-03-24T20:03:41;97951.47;;;5.65;85.25
69035;BME280;56091;55.756;37.412;2023-03-24T20:08:42;97957.03;;;5.59;85.25
69035;BME280;56091;55.756;37.412;2023-03-24T20:13:46;97937.19;;;5.55;85.14
69035;BME280;56091;55.756;37.412;2023-03-24T20:18:46;97931.50;;;5.46;85.14
69035;BME280;56091;55.756;37.412;2023-03-24T20:23:49;97939.00;;;5.49;85.27
69035;BME280;56091;55.756;37.412;2023-03-24T20:28:49;97937.13;;;5.44;84.91
69035;BME280;56091;55.756;37.412;2023-03-24T20:33:51;97932.00;;;5.43;85.09
69035;BME280;56091;55.756;37.412;2023-03-24T20:38:51;97923.69;;;5.39;85.24
69035;BME280;56091;55.756;37.412;2023-03-24T20:43:52;97921.25;;;5.38;85.53
69035;BME280;56091;55.756;37.412;2023-03-24T20:48:54;97915.63;;;5.34;85.55
69035;BME280;56091;55.756;37.412;2023-03-24T20:53:55;97900.38;;;5.35;85.59
69035;BME280;56091;55.756;37.412;2023-03-24T20:58:56;97903.25;;;5.28;85.61
69035;BME280;56091;55.756;37.412;2023-03-24T21:03:58;97902.50;;;5.33;85.67
69035;BME280;56091;55.756;37.412;2023-03-24T21:08:59;97837.47;;;4.95;85.65
69035;BME280;56091;55.756;37.412;2023-03-24T21:14:02;97900.16;;;5.41;85.35
69035;BME280;56091;55.756;37.412;2023-03-24T21:19:03;97903.94;;;5.45;85.07
69035;BME280;56091;55.756;37.412;2023-03-24T21:24:04;97905.81;;;5.45;84.78
69035;BME280;56091;55.756;37.412;2023-03-24T21:29:05;97904.13;;;5.34;84.99
69035;BME280;56091;55.756;37.412;2023-03-24T21:34:09;97902.50;;;5.33;85.14
69035;BME280;56091;55.756;37.412;2023-03-24T21:39:10;97896.09;;;5.34;85.23
69035;BME280;56091;55.756;37.412;2023-03-24T21:44:11;97889.91;;;5.28;85.12
69035;BME280;56091;55.756;37.412;2023-03-24T21:49:14;97902.47;;;5.27;85.23
69035;BME280;56091;55.756;37.412;2023-03-24T21:54:18;97882.06;;;5.21;85.16
69035;BME280;56091;55.756;37.412;2023-03-24T21:59:20;97894.94;;;5.24;85.05
69035;BME280;56091;55.756;37.412;2023-03-24T22:04:21;97874.81;;;5.17;84.94
69035;BME280;56091;55.756;37.412;2023-03-24T22:09:24;97874.66;;;5.28;84.73
69035;BME280;56091;55.756;37.412;2023-03-24T22:14:26;97874.66;;;5.28;84.55
69035;BME280;56091;55.756;37.412;2023-03-24T22:19:27;97858.91;;;5.32;84.28
69035;BME280;56091;55.756;37.412;2023-03-24T22:24:28;97871.31;;;5.43;83.43
69035;BME280;56091;55.756;37.412;2023-03-24T22:29:29;97864.84;;;5.39;83.42
69035;BME280;56091;55.756;37.412;2023-03-24T22:34:30;97869.09;;;5.35;83.36
69035;BME280;56091;55.756;37.412;2023-03-24T22:39:32;97867.97;;;5.31;83.82
69035;BME280;56091;55.756;37.412;2023-03-24T22:44:33;97860.44;;;5.23;84.06
69035;BME280;56091;55.756;37.412;2023-03-24T22:49:34;97848.88;;;5.17;84.23
69035;BME280;56091;55.756;37.412;2023-03-24T22:54:36;97847.00;;;5.13;84.48
69035;BME280;56091;55.756;37.412;2023-03-24T22:59:37;97819.31;;;4.97;84.39
69035;BME280;56091;55.756;37.412;2023-03-24T23:04:37;97847.09;;;4.96;84.69
69035;BME280;56091;55.756;37.412;2023-03-24T23:09:42;97850.78;;;4.89;85.03
69035;BME280;56091;55.756;37.412;2023-03-24T23:14:44;97840.59;;;4.86;85.44
69035;BME280;56091;55.756;37.412;2023-03-24T23:19:45;97846.50;;;4.88;85.30
69035;BME280;56091;55.756;37.412;2023-03-24T23:24:46;97849.66;;;4.85;85.15
69035;BME280;56091;55.756;37.412;2023-03-24T23:29:48;97845.88;;;4.81;85.38
69035;BME280;56091;55.756;37.412;2023-03-24T23:34:50;97835.19;;;4.81;85.20
69035;BME280;56091;55.756;37.412;2023-03-24T23:39:51;97821.53;;;4.78;85.05
69035;BME280;56091;55.756;37.412;2023-03-24T23:44:51;97797.78;;;4.76;84.78
69035;BME280;56091;55.756;37.412;2023-03-24T23:49:52;97828.91;;;4.93;84.33
69035;BME280;56091;55.756;37.412;2023-03-24T23:54:53;97797.06;;;4.86;84.22
69035;BME280;56091;55.756;37.412;2023-03-24T23:59:57;97817.75;;;5.01;83.84
